createdAt,value
2018-09-27T00:00:56.961Z,56.00
2018-09-27T00:03:00.687Z,56.00
2018-09-27T00:05:04.512Z,56.10
2018-09-27T00:07:08.277Z,55.90
2018-09-27T00:09:12.067Z,56.10
2018-09-27T00:11:15.806Z,55.90
2018-09-27T00:13:19.599Z,56.00
2018-09-27T00:15:23.320Z,55.30
2018-09-27T00:17:27.071Z,55.30
2018-09-27T00:19:30.939Z,55.70
2018-09-27T00:21:34.714Z,54.80
2018-09-27T00:23:38.379Z,55.30
2018-09-27T00:25:43.184Z,55.20
2018-09-27T00:27:46.877Z,54.60
2018-09-27T00:29:50.568Z,53.70
2018-09-27T00:31:54.239Z,53.20
2018-09-27T00:33:58.088Z,53.60
2018-09-27T00:36:01.782Z,53.70
2018-09-27T00:38:05.613Z,53.90
2018-09-27T00:40:09.356Z,54.40
2018-09-27T00:42:13.230Z,54.90
2018-09-27T00:44:16.980Z,55.20
2018-09-27T00:46:20.777Z,54.80
2018-09-27T00:48:24.467Z,55.30
2018-09-27T00:50:28.198Z,55.70
2018-09-27T00:52:31.874Z,55.70
2018-09-27T00:54:35.592Z,55.70
2018-09-27T00:56:39.274Z,56.00
2018-09-27T00:58:43.070Z,55.60
2018-09-27T01:00:46.761Z,55.70
2018-09-27T01:02:50.424Z,55.40
2018-09-27T01:04:54.174Z,55.60
2018-09-27T01:06:57.916Z,55.50
2018-09-27T01:09:01.571Z,55.40
2018-09-27T01:11:05.309Z,53.50
2018-09-27T01:13:08.977Z,54.30
2018-09-27T01:15:12.804Z,54.30
2018-09-27T01:17:16.570Z,55.20
2018-09-27T01:19:20.382Z,55.00
2018-09-27T01:21:24.058Z,54.20
2018-09-27T01:23:27.702Z,54.00
2018-09-27T01:25:31.378Z,53.50
2018-09-27T01:27:35.094Z,53.10
2018-09-27T01:29:38.743Z,54.80
2018-09-27T01:31:42.612Z,55.20
2018-09-27T01:33:46.378Z,55.40
2018-09-27T01:35:50.160Z,55.30
2018-09-27T01:37:53.799Z,54.40
2018-09-27T01:39:57.603Z,55.30
2018-09-27T01:42:01.264Z,55.30
2018-09-27T01:44:05.063Z,54.90
2018-09-27T01:46:09.050Z,54.10
2018-09-27T01:48:12.736Z,54.70
2018-09-27T01:50:16.402Z,55.40
2018-09-27T01:52:20.066Z,55.70
2018-09-27T01:54:23.763Z,55.80
2018-09-27T01:56:27.499Z,55.10
2018-09-27T01:58:31.201Z,55.10
2018-09-27T02:00:35.022Z,56.00
2018-09-27T02:02:38.657Z,55.10
2018-09-27T02:04:42.434Z,55.50
2018-09-27T02:06:46.139Z,55.90
2018-09-27T02:08:49.862Z,55.30
2018-09-27T02:10:53.511Z,55.70
2018-09-27T02:12:58.216Z,55.50
2018-09-27T02:15:02.316Z,55.60
2018-09-27T02:17:06.034Z,55.00
2018-09-27T02:19:09.807Z,55.00
2018-09-27T02:21:13.557Z,55.00
2018-09-27T02:23:17.315Z,55.00
2018-09-27T02:25:21.015Z,55.00
2018-09-27T02:27:24.691Z,55.00
2018-09-27T02:29:28.361Z,54.90
2018-09-27T02:31:32.391Z,54.90
2018-09-27T02:33:36.192Z,54.90
2018-09-27T02:35:39.847Z,55.00
2018-09-27T02:37:43.647Z,54.90
2018-09-27T02:39:47.291Z,55.80
2018-09-27T02:41:51.446Z,54.80
2018-09-27T02:43:55.087Z,54.40
2018-09-27T02:45:58.824Z,54.90
2018-09-27T02:48:02.448Z,54.70
2018-09-27T02:50:06.331Z,54.70
2018-09-27T02:52:10.112Z,54.70
2018-09-27T02:54:14.116Z,54.70
2018-09-27T02:56:17.905Z,55.00
2018-09-27T02:58:21.637Z,55.30
2018-09-27T03:00:25.378Z,54.40
2018-09-27T03:02:29.217Z,54.90
2018-09-27T03:04:32.889Z,55.00
2018-09-27T03:06:36.747Z,54.60
2018-09-27T03:08:40.417Z,54.50
2018-09-27T03:10:44.233Z,54.60
2018-09-27T03:12:48.031Z,55.30
2018-09-27T03:14:51.762Z,54.50
2018-09-27T03:16:55.770Z,54.70
2018-09-27T03:19:00.190Z,55.80
2018-09-27T03:21:04.269Z,55.60
2018-09-27T03:23:08.246Z,56.90
2018-09-27T03:25:12.505Z,56.80
2018-09-27T03:27:16.474Z,57.40
2018-09-27T03:29:20.156Z,58.00
2018-09-27T03:31:24.085Z,57.30
2018-09-27T03:33:27.831Z,57.80
2018-09-27T03:35:31.816Z,57.20
2018-09-27T03:37:35.519Z,56.80
2018-09-27T03:39:39.322Z,56.20
2018-09-27T03:41:43.617Z,57.20
2018-09-27T03:43:47.407Z,57.20
2018-09-27T03:45:51.047Z,56.70
2018-09-27T03:47:54.871Z,56.90
2018-09-27T03:49:58.650Z,57.00
2018-09-27T03:52:02.380Z,57.30
2018-09-27T03:54:06.221Z,57.30
2018-09-27T03:56:09.859Z,57.20
2018-09-27T03:58:13.667Z,57.30
2018-09-27T04:00:17.406Z,57.60
2018-09-27T04:02:21.234Z,58.10
2018-09-27T04:04:25.031Z,57.80
2018-09-27T04:06:28.752Z,57.90
2018-09-27T04:08:32.500Z,59.10
2018-09-27T04:10:36.331Z,59.40
2018-09-27T04:12:40.082Z,59.90
2018-09-27T04:14:43.813Z,59.80
2018-09-27T04:16:48.095Z,60.80
2018-09-27T04:18:51.829Z,60.60
2018-09-27T04:20:55.576Z,60.30
2018-09-27T04:22:59.423Z,60.70
2018-09-27T04:25:03.124Z,60.60
2018-09-27T04:27:06.974Z,60.10
2018-09-27T04:29:10.751Z,60.60
2018-09-27T04:31:14.699Z,60.90
2018-09-27T04:33:18.443Z,60.70
2018-09-27T04:35:22.340Z,61.30
2018-09-27T04:37:26.046Z,59.50
2018-09-27T04:39:30.093Z,59.70
2018-09-27T04:41:33.885Z,59.80
2018-09-27T04:43:37.690Z,60.10
2018-09-27T04:45:41.400Z,59.80
2018-09-27T04:47:45.305Z,59.60
2018-09-27T04:49:49.052Z,59.10
2018-09-27T04:51:52.835Z,59.10
2018-09-27T04:53:56.792Z,58.50
2018-09-27T04:56:00.638Z,58.90
2018-09-27T04:58:04.447Z,58.40
2018-09-27T05:00:08.387Z,58.20
2018-09-27T05:02:12.906Z,58.50
2018-09-27T05:04:17.038Z,59.00
2018-09-27T05:06:21.190Z,58.70
2018-09-27T05:08:25.082Z,58.80
2018-09-27T05:10:28.974Z,57.90
2018-09-27T05:12:32.680Z,59.20
2018-09-27T05:14:36.446Z,59.00
2018-09-27T05:16:41.349Z,59.00
2018-09-27T05:18:45.458Z,59.10
2018-09-27T05:20:49.604Z,59.00
2018-09-27T05:22:53.680Z,58.30
2018-09-27T05:24:58.195Z,58.40
2018-09-27T05:27:02.030Z,59.20
2018-09-27T05:29:05.860Z,59.90
2018-09-27T05:31:09.652Z,60.40
2018-09-27T05:33:13.801Z,61.10
2018-09-27T05:35:17.607Z,61.60
2018-09-27T05:37:21.507Z,61.80
2018-09-27T05:39:25.818Z,61.60
2018-09-27T05:41:29.783Z,62.00
2018-09-27T05:43:33.564Z,61.00
2018-09-27T05:45:38.101Z,61.60
2018-09-27T05:47:42.022Z,61.60
2018-09-27T05:49:45.999Z,62.50
2018-09-27T05:51:49.732Z,62.60
2018-09-27T05:53:53.557Z,62.60
2018-09-27T05:55:57.456Z,62.40
2018-09-27T05:58:01.408Z,62.00
2018-09-27T06:00:05.906Z,62.40
2018-09-27T06:02:09.842Z,62.90
2018-09-27T06:04:13.873Z,64.10
2018-09-27T06:06:17.534Z,63.50
2018-09-27T06:08:21.653Z,63.70
2018-09-27T06:10:25.452Z,64.20
2018-09-27T06:12:29.466Z,64.80
2018-09-27T06:14:33.495Z,64.80
2018-09-27T06:16:38.483Z,64.90
2018-09-27T06:18:42.570Z,64.90
2018-09-27T06:20:46.715Z,65.00
2018-09-27T06:22:50.854Z,65.00
2018-09-27T06:24:54.731Z,78.80
2018-09-27T06:26:59.188Z,91.50
2018-09-27T06:29:03.154Z,94.80
2018-09-27T06:31:07.487Z,96.30
2018-09-27T06:33:11.239Z,97.20
2018-09-27T06:35:15.249Z,96.50
2018-09-27T06:37:19.081Z,93.00
2018-09-27T06:39:22.999Z,85.70
2018-09-27T06:41:27.018Z,82.00
2018-09-27T06:43:30.830Z,64.30
2018-09-27T06:45:34.718Z,66.10
2018-09-27T06:47:38.834Z,57.80
2018-09-27T06:49:42.734Z,48.40
2018-09-27T06:51:46.861Z,45.80
2018-09-27T06:53:50.572Z,39.70
2018-09-27T06:55:54.630Z,42.10
2018-09-27T06:57:58.307Z,42.10
2018-09-27T07:00:02.381Z,39.80
2018-09-27T07:02:06.267Z,37.40
2018-09-27T07:04:10.828Z,35.90
2018-09-27T07:06:14.657Z,29.00
2018-09-27T07:08:18.356Z,30.00
2018-09-27T07:10:22.172Z,29.90
2018-09-27T07:12:31.389Z,27.60
2018-09-27T07:14:36.336Z,31.40
2018-09-27T07:16:40.244Z,27.40
2018-09-27T07:18:44.253Z,26.70
2018-09-27T07:20:48.366Z,25.10
2018-09-27T07:23:04.982Z,27.80
2018-09-27T07:25:13.730Z,24.20
2018-09-27T07:27:17.588Z,24.20
2018-09-27T07:29:21.365Z,20.30
2018-09-27T07:31:25.278Z,22.30
2018-09-27T07:33:29.026Z,20.10
2018-09-27T07:35:32.756Z,20.30
2018-09-27T07:37:36.503Z,19.00
2018-09-27T07:39:40.251Z,18.30
2018-09-27T07:41:44.212Z,15.20
2018-09-27T07:43:47.934Z,14.50
2018-09-27T07:45:51.773Z,18.60
2018-09-27T07:47:55.446Z,14.70
2018-09-27T07:49:59.541Z,13.70
2018-09-27T07:52:03.357Z,15.90
2018-09-27T07:54:07.287Z,15.20
2018-09-27T07:56:11.021Z,13.70
2018-09-27T07:58:14.803Z,13.50
2018-09-27T08:00:18.632Z,13.30
2018-09-27T08:02:22.665Z,12.90
2018-09-27T08:04:26.484Z,9.60
2018-09-27T08:06:30.500Z,11.90
2018-09-27T08:08:34.256Z,11.00
2018-09-27T08:10:38.044Z,9.60
2018-09-27T08:12:41.696Z,9.40
2018-09-27T08:14:45.753Z,6.10
2018-09-27T08:16:49.495Z,5.60
2018-09-27T08:18:53.403Z,7.60
2018-09-27T08:20:57.250Z,7.00
2018-09-27T08:23:00.852Z,6.90
2018-09-27T08:25:04.659Z,5.50
2018-09-27T08:27:08.477Z,6.10
2018-09-27T08:29:12.192Z,4.10
2018-09-27T08:31:16.023Z,3.60
2018-09-27T08:33:19.792Z,2.60
2018-09-27T08:35:23.504Z,1.20
2018-09-27T08:37:27.206Z,2.30
2018-09-27T08:39:30.993Z,1.00
2018-09-27T08:41:34.709Z,1.00
2018-09-27T08:43:38.441Z,1.00
2018-09-27T08:45:42.393Z,1.00
2018-09-27T08:47:46.089Z,1.00
2018-09-27T08:49:49.884Z,1.80
2018-09-27T08:51:53.648Z,1.20
2018-09-27T08:53:57.325Z,1.00
2018-09-27T08:56:01.169Z,1.00
2018-09-27T08:58:04.780Z,1.00
2018-09-27T09:00:08.743Z,1.00
2018-09-27T09:02:12.551Z,1.00
2018-09-27T09:04:16.360Z,1.00
2018-09-27T09:06:20.081Z,1.00
2018-09-27T09:08:23.861Z,1.00
2018-09-27T09:10:27.529Z,1.00
2018-09-27T09:12:31.214Z,1.00
2018-09-27T09:14:34.911Z,1.00
2018-09-27T09:16:38.700Z,1.00
2018-09-27T09:18:42.342Z,1.00
2018-09-27T09:20:46.094Z,1.00
2018-09-27T09:22:49.889Z,1.00
2018-09-27T09:24:53.579Z,1.00
2018-09-27T09:26:57.254Z,1.00
2018-09-27T09:29:00.956Z,1.00
2018-09-27T09:31:04.876Z,1.00
2018-09-27T09:33:08.646Z,1.00
2018-09-27T09:35:12.432Z,1.00
2018-09-27T09:37:17.552Z,1.00
2018-09-27T09:39:22.026Z,1.00
2018-09-27T09:41:27.541Z,1.00
2018-09-27T09:43:32.921Z,1.00
2018-09-27T09:45:37.481Z,1.00
2018-09-27T09:47:42.000Z,1.00
2018-09-27T09:49:48.061Z,1.00
2018-09-27T09:51:53.828Z,1.00
2018-09-27T09:54:01.889Z,1.00
2018-09-27T09:56:08.588Z,1.00
2018-09-27T09:58:14.076Z,1.00
2018-09-27T10:00:18.648Z,1.00
2018-09-27T10:02:23.303Z,1.00
2018-09-27T10:04:29.361Z,1.00
2018-09-27T10:06:34.864Z,1.00
2018-09-27T10:08:43.212Z,1.00
2018-09-27T10:10:47.881Z,1.00
2018-09-27T10:12:52.526Z,1.00
2018-09-27T10:15:01.293Z,1.00
2018-09-27T10:17:06.614Z,1.00
2018-09-27T10:19:11.106Z,1.00
2018-09-27T10:21:16.860Z,1.00
2018-09-27T10:23:23.136Z,1.00
2018-09-27T10:25:27.872Z,1.00
2018-09-27T10:27:32.618Z,1.00
2018-09-27T10:29:37.253Z,1.00
2018-09-27T10:31:42.076Z,1.00
2018-09-27T10:33:45.856Z,1.00
2018-09-27T10:35:49.594Z,1.00
2018-09-27T10:37:53.403Z,1.00
2018-09-27T10:39:57.111Z,1.00
2018-09-27T10:42:00.840Z,1.00
2018-09-27T10:44:04.574Z,1.00
2018-09-27T10:46:08.259Z,1.00
2018-09-27T10:48:12.050Z,1.00
2018-09-27T10:50:15.768Z,1.00
2018-09-27T10:52:20.288Z,1.00
2018-09-27T10:54:24.126Z,1.00
2018-09-27T10:56:27.825Z,1.00
2018-09-27T10:58:31.687Z,1.00
2018-09-27T11:00:35.372Z,1.00
2018-09-27T11:02:39.136Z,1.00
2018-09-27T11:04:42.972Z,1.00
2018-09-27T11:06:46.661Z,1.00
2018-09-27T11:08:50.387Z,1.00
2018-09-27T11:10:54.290Z,1.00
2018-09-27T11:12:58.113Z,1.00
2018-09-27T11:15:01.787Z,1.00
2018-09-27T11:17:05.531Z,1.00
2018-09-27T11:19:09.263Z,1.00
2018-09-27T11:21:12.987Z,1.00
2018-09-27T11:23:16.799Z,1.00
2018-09-27T11:25:20.620Z,1.00
2018-09-27T11:27:24.325Z,1.00
2018-09-27T11:29:33.482Z,1.00
2018-09-27T11:31:42.383Z,1.00
2018-09-27T11:33:46.190Z,1.00
2018-09-27T11:35:50.117Z,1.00
2018-09-27T11:37:53.917Z,1.00
2018-09-27T11:39:57.769Z,1.00
2018-09-27T11:42:01.523Z,1.00
2018-09-27T11:44:05.516Z,1.00
2018-09-27T11:46:09.161Z,1.00
2018-09-27T11:48:12.992Z,1.00
2018-09-27T11:50:16.925Z,1.00
2018-09-27T11:52:20.598Z,1.00
2018-09-27T11:54:24.427Z,1.00
2018-09-27T11:56:28.326Z,1.00
2018-09-27T11:58:32.076Z,1.00
2018-09-27T12:00:35.929Z,1.00
2018-09-27T12:02:39.775Z,1.00
2018-09-27T12:04:43.803Z,1.00
2018-09-27T12:06:47.542Z,1.00
2018-09-27T12:08:51.200Z,1.00
2018-09-27T12:10:54.968Z,1.00
2018-09-27T12:12:59.413Z,1.00
2018-09-27T12:15:03.312Z,1.00
2018-09-27T12:17:07.266Z,1.00
2018-09-27T12:19:11.075Z,1.00
2018-09-27T12:21:14.850Z,1.00
2018-09-27T12:23:18.691Z,1.00
2018-09-27T12:25:22.412Z,1.00
2018-09-27T12:27:26.102Z,1.00
2018-09-27T12:29:29.831Z,1.00
2018-09-27T12:31:33.588Z,1.00
2018-09-27T12:33:37.276Z,1.00
2018-09-27T12:35:40.963Z,1.00
2018-09-27T12:37:44.712Z,1.00
2018-09-27T12:39:48.401Z,1.00
2018-09-27T12:41:52.293Z,1.00
2018-09-27T12:43:55.953Z,1.00
2018-09-27T12:45:59.773Z,1.00
2018-09-27T12:48:03.503Z,1.00
2018-09-27T12:50:07.333Z,1.00
2018-09-27T12:52:11.378Z,1.00
2018-09-27T12:54:15.215Z,1.00
2018-09-27T12:56:19.090Z,1.00
2018-09-27T12:58:22.751Z,1.00
2018-09-27T13:00:26.805Z,1.00
2018-09-27T13:02:30.621Z,1.00
2018-09-27T13:04:34.374Z,1.00
2018-09-27T13:06:38.188Z,1.00
2018-09-27T13:08:42.161Z,1.00
2018-09-27T13:10:45.936Z,1.00
2018-09-27T13:12:49.775Z,1.00
2018-09-27T13:14:53.413Z,1.00
2018-09-27T13:16:57.198Z,1.00
2018-09-27T13:19:01.067Z,1.00
2018-09-27T13:21:04.974Z,1.00
2018-09-27T13:23:08.958Z,1.00
2018-09-27T13:25:12.815Z,1.00
2018-09-27T13:27:16.631Z,1.00
2018-09-27T13:29:20.277Z,1.00
2018-09-27T13:31:24.047Z,1.00
2018-09-27T13:33:27.897Z,1.00
2018-09-27T13:35:31.567Z,1.00
2018-09-27T13:37:35.382Z,1.00
2018-09-27T13:39:39.072Z,1.00
2018-09-27T13:41:42.779Z,1.00
2018-09-27T13:43:46.520Z,1.00
2018-09-27T13:45:50.276Z,1.00
2018-09-27T13:47:54.066Z,1.00
2018-09-27T13:49:58.090Z,1.00
2018-09-27T13:52:02.037Z,1.00
2018-09-27T13:54:05.818Z,1.00
2018-09-27T13:56:09.688Z,1.00
2018-09-27T13:58:13.475Z,1.00
2018-09-27T14:00:17.573Z,1.00
2018-09-27T14:02:21.621Z,1.00
2018-09-27T14:04:25.732Z,1.00
2018-09-27T14:06:29.490Z,1.00
2018-09-27T14:08:33.255Z,1.00
2018-09-27T14:10:36.994Z,1.00
2018-09-27T14:12:40.980Z,1.00
2018-09-27T14:14:44.930Z,1.00
2018-09-27T14:16:49.043Z,1.00
2018-09-27T14:18:52.955Z,1.00
2018-09-27T14:20:56.745Z,1.00
2018-09-27T14:23:00.672Z,1.00
2018-09-27T14:25:04.743Z,1.00
2018-09-27T14:27:08.721Z,1.00
2018-09-27T14:29:12.939Z,1.00
2018-09-27T14:31:16.696Z,1.00
2018-09-27T14:33:20.890Z,1.00
2018-09-27T14:35:24.834Z,1.00
2018-09-27T14:37:28.884Z,1.00
2018-09-27T14:39:32.846Z,1.00
2018-09-27T14:41:36.736Z,1.00
2018-09-27T14:43:40.693Z,1.00
2018-09-27T14:45:44.731Z,1.00
2018-09-27T14:47:48.854Z,1.00
2018-09-27T14:49:52.631Z,1.00
2018-09-27T14:51:56.581Z,1.00
2018-09-27T14:54:00.423Z,1.00
2018-09-27T14:56:04.657Z,1.00
2018-09-27T14:58:11.653Z,1.00
2018-09-27T15:00:16.650Z,1.00
2018-09-27T15:02:20.860Z,1.00
2018-09-27T15:04:25.018Z,1.00
2018-09-27T15:06:28.900Z,1.00
2018-09-27T15:08:33.019Z,1.00
2018-09-27T15:10:37.107Z,1.00
2018-09-27T15:12:41.361Z,1.00
2018-09-27T15:14:45.410Z,1.00
2018-09-27T15:16:49.749Z,1.00
2018-09-27T15:18:53.726Z,1.00
2018-09-27T15:20:57.665Z,1.00
2018-09-27T15:23:01.586Z,1.00
2018-09-27T15:25:05.704Z,1.00
2018-09-27T15:27:13.349Z,1.00
2018-09-27T15:29:17.412Z,1.00
2018-09-27T15:31:21.402Z,1.00
2018-09-27T15:33:25.318Z,1.00
2018-09-27T15:35:29.205Z,1.00
2018-09-27T15:37:33.211Z,1.00
2018-09-27T15:39:37.140Z,1.00
2018-09-27T15:41:40.920Z,1.00
2018-09-27T15:43:44.726Z,1.00
2018-09-27T15:45:48.736Z,1.00
2018-09-27T15:47:52.719Z,1.00
2018-09-27T15:49:56.849Z,1.00
2018-09-27T15:52:00.584Z,1.00
2018-09-27T15:54:04.642Z,1.00
2018-09-27T15:56:08.793Z,1.00
2018-09-27T15:58:13.875Z,1.00
2018-09-27T16:00:17.961Z,1.00
2018-09-27T16:02:22.114Z,1.00
2018-09-27T16:04:26.254Z,1.00
2018-09-27T16:06:30.393Z,1.00
2018-09-27T16:08:34.184Z,1.00
2018-09-27T16:10:38.059Z,1.00
2018-09-27T16:12:41.856Z,1.00
2018-09-27T16:14:45.911Z,1.00
2018-09-27T16:16:49.797Z,1.00
2018-09-27T16:18:53.683Z,1.00
2018-09-27T16:20:57.555Z,1.00
2018-09-27T16:23:01.700Z,1.00
2018-09-27T16:25:06.153Z,1.00
2018-09-27T16:27:10.133Z,1.00
2018-09-27T16:29:14.056Z,1.00
2018-09-27T16:31:18.074Z,1.00
2018-09-27T16:33:21.996Z,1.00
2018-09-27T16:35:26.053Z,1.00
2018-09-27T16:37:29.830Z,1.00
2018-09-27T16:39:33.861Z,1.00
2018-09-27T16:41:37.829Z,1.00
2018-09-27T16:43:41.821Z,1.00
2018-09-27T16:45:45.908Z,1.00
2018-09-27T16:47:50.015Z,1.00
2018-09-27T16:49:54.072Z,1.00
2018-09-27T16:51:58.200Z,1.00
2018-09-27T16:54:02.171Z,1.00
2018-09-27T16:56:06.252Z,1.00
2018-09-27T16:58:10.193Z,1.00
2018-09-27T17:00:14.171Z,1.00
2018-09-27T17:02:18.580Z,1.00
2018-09-27T17:04:22.526Z,1.00
2018-09-27T17:06:27.496Z,1.00
2018-09-27T17:08:31.666Z,1.00
2018-09-27T17:10:35.848Z,1.00
2018-09-27T17:12:39.985Z,1.00
2018-09-27T17:14:44.032Z,1.00
2018-09-27T17:16:49.575Z,1.00
2018-09-27T17:18:53.716Z,1.00
2018-09-27T17:20:57.701Z,1.00
2018-09-27T17:23:01.776Z,1.00
2018-09-27T17:25:05.961Z,1.00
2018-09-27T17:27:10.315Z,1.00
2018-09-27T17:29:14.546Z,1.00
2018-09-27T17:31:18.976Z,1.00
2018-09-27T17:33:23.847Z,1.00
2018-09-27T17:35:28.056Z,1.00
2018-09-27T17:37:33.379Z,1.00
2018-09-27T17:39:37.829Z,1.00
2018-09-27T17:41:42.515Z,1.00
2018-09-27T17:43:46.648Z,1.00
2018-09-27T17:45:50.795Z,1.00
2018-09-27T17:47:54.669Z,1.00
2018-09-27T17:49:58.806Z,1.00
2018-09-27T17:52:03.270Z,1.00
2018-09-27T17:54:07.477Z,1.00
2018-09-27T17:56:13.225Z,1.00
2018-09-27T17:58:20.236Z,1.00
2018-09-27T18:00:26.294Z,1.00
2018-09-27T18:02:47.897Z,1.00
2018-09-27T18:04:54.236Z,1.00
2018-09-27T18:06:58.213Z,1.00
2018-09-27T18:09:02.192Z,1.00
2018-09-27T18:11:06.312Z,1.20
2018-09-27T18:13:10.372Z,1.00
2018-09-27T18:15:15.738Z,1.70
2018-09-27T18:17:20.009Z,2.60
2018-09-27T18:19:24.417Z,3.10
2018-09-27T18:21:31.461Z,3.60
2018-09-27T18:23:38.152Z,3.60
2018-09-27T18:25:42.711Z,3.50
2018-09-27T18:27:46.794Z,4.70
2018-09-27T18:29:52.478Z,6.70
2018-09-27T18:32:00.571Z,4.90
2018-09-27T18:34:05.933Z,6.70
2018-09-27T18:36:11.379Z,8.10
2018-09-27T18:38:15.592Z,7.80
2018-09-27T18:40:19.680Z,8.00
2018-09-27T18:42:24.090Z,8.40
2018-09-27T18:44:28.453Z,9.80
2018-09-27T18:46:32.695Z,10.30
2018-09-27T18:48:36.711Z,10.60
2018-09-27T18:50:40.619Z,11.40
2018-09-27T18:52:48.090Z,11.50
2018-09-27T18:54:55.362Z,11.40
2018-09-27T18:57:01.390Z,11.30
2018-09-27T18:59:08.848Z,11.30
2018-09-27T19:01:16.932Z,11.90
2018-09-27T19:03:23.481Z,11.90
2018-09-27T19:05:32.035Z,11.20
2018-09-27T19:07:39.567Z,12.70
2018-09-27T19:09:43.965Z,12.50
2018-09-27T19:11:48.172Z,13.10
2018-09-27T19:13:53.045Z,13.30
2018-09-27T19:15:56.986Z,14.20
2018-09-27T19:18:01.027Z,14.30
2018-09-27T19:20:05.081Z,13.50
2018-09-27T19:22:09.034Z,13.60
2018-09-27T19:24:13.232Z,15.10
2018-09-27T19:26:17.170Z,13.50
2018-09-27T19:28:21.373Z,15.70
2018-09-27T19:30:25.541Z,16.10
2018-09-27T19:32:29.555Z,16.70
2018-09-27T19:34:33.447Z,17.40
2018-09-27T19:36:38.268Z,17.50
2018-09-27T19:38:43.873Z,16.90
2018-09-27T19:40:51.293Z,17.40
2018-09-27T19:42:55.864Z,16.50
2018-09-27T19:44:59.917Z,17.90
2018-09-27T19:47:04.080Z,19.00
2018-09-27T19:49:11.043Z,18.10
2018-09-27T19:51:15.329Z,18.40
2018-09-27T19:53:19.452Z,18.80
2018-09-27T19:55:23.391Z,19.20
2018-09-27T19:57:27.306Z,17.80
2018-09-27T19:59:31.409Z,19.50
2018-09-27T20:01:35.663Z,20.70
2018-09-27T20:03:39.784Z,20.90
2018-09-27T20:05:43.913Z,21.40
2018-09-27T20:07:47.989Z,21.60
2018-09-27T20:09:51.760Z,22.30
2018-09-27T20:11:55.621Z,21.80
2018-09-27T20:13:59.667Z,22.80
2018-09-27T20:16:03.880Z,22.60
2018-09-27T20:18:07.895Z,22.00
2018-09-27T20:20:11.960Z,22.50
2018-09-27T20:22:16.138Z,22.50
2018-09-27T20:24:20.128Z,22.90
2018-09-27T20:26:23.936Z,22.80
2018-09-27T20:28:27.958Z,23.20
2018-09-27T20:30:31.963Z,23.20
2018-09-27T20:32:35.739Z,23.50
2018-09-27T20:34:39.808Z,23.60
2018-09-27T20:36:43.828Z,23.70
2018-09-27T20:38:49.150Z,24.90
2018-09-27T20:40:53.297Z,24.30
2018-09-27T20:42:57.095Z,25.30
2018-09-27T20:45:01.047Z,26.50
2018-09-27T20:47:04.973Z,26.30
2018-09-27T20:49:08.983Z,26.60
2018-09-27T20:51:12.816Z,27.50
2018-09-27T20:53:16.770Z,26.70
2018-09-27T20:55:20.630Z,27.60
2018-09-27T20:57:24.430Z,27.90
2018-09-27T20:59:28.297Z,27.00
2018-09-27T21:01:32.095Z,27.50
2018-09-27T21:03:36.003Z,27.20
2018-09-27T21:05:39.752Z,27.50
2018-09-27T21:07:43.604Z,27.70
2018-09-27T21:09:47.567Z,27.60
2018-09-27T21:11:51.360Z,27.80
2018-09-27T21:13:55.339Z,28.70
2018-09-27T21:15:59.069Z,28.20
2018-09-27T21:18:02.907Z,28.90
2018-09-27T21:20:06.694Z,29.60
2018-09-27T21:22:10.632Z,29.50
2018-09-27T21:24:14.385Z,30.40
2018-09-27T21:26:18.386Z,30.60
2018-09-27T21:28:22.154Z,31.30
2018-09-27T21:30:26.187Z,31.80
2018-09-27T21:32:29.971Z,33.20
2018-09-27T21:34:33.959Z,32.30
2018-09-27T21:36:37.755Z,32.40
2018-09-27T21:38:41.721Z,30.80
2018-09-27T21:40:45.565Z,31.50
2018-09-27T21:42:49.423Z,32.10
2018-09-27T21:44:53.253Z,32.30
2018-09-27T21:46:57.112Z,32.70
2018-09-27T21:49:00.900Z,33.20
2018-09-27T21:51:04.802Z,33.30
2018-09-27T21:53:08.558Z,33.70
2018-09-27T21:55:12.405Z,33.40
2018-09-27T21:57:16.183Z,33.80
2018-09-27T21:59:20.043Z,34.00
2018-09-27T22:01:24.014Z,32.70
2018-09-27T22:03:27.843Z,33.80
2018-09-27T22:05:31.521Z,33.80
2018-09-27T22:07:35.370Z,33.80
2018-09-27T22:09:39.219Z,32.70
2018-09-27T22:11:43.100Z,34.60
2018-09-27T22:13:46.835Z,35.20
2018-09-27T22:15:50.696Z,34.60
2018-09-27T22:17:54.387Z,34.40
2018-09-27T22:19:58.215Z,35.20
2018-09-27T22:22:01.985Z,35.30
2018-09-27T22:24:05.780Z,35.70
2018-09-27T22:26:09.543Z,36.60
2018-09-27T22:28:13.298Z,37.30
2018-09-27T22:30:17.268Z,37.20
2018-09-27T22:32:21.170Z,38.00
2018-09-27T22:34:25.014Z,38.10
2018-09-27T22:36:28.817Z,39.40
2018-09-27T22:38:32.595Z,38.40
2018-09-27T22:40:36.364Z,38.10
2018-09-27T22:42:40.252Z,38.10
2018-09-27T22:44:43.997Z,37.30
2018-09-27T22:46:47.833Z,37.80
2018-09-27T22:48:51.631Z,38.30
2018-09-27T22:50:55.400Z,39.10
2018-09-27T22:52:59.132Z,39.30
2018-09-27T22:55:03.099Z,39.70
2018-09-27T22:57:06.884Z,40.80
2018-09-27T22:59:10.763Z,40.60
2018-09-27T23:01:14.500Z,40.90
2018-09-27T23:03:18.199Z,40.90
2018-09-27T23:05:21.939Z,40.90
2018-09-27T23:07:25.718Z,40.90
2018-09-27T23:09:29.437Z,41.60
2018-09-27T23:11:33.573Z,39.50
2018-09-27T23:13:37.253Z,38.50
2018-09-27T23:15:41.141Z,38.60
2018-09-27T23:17:44.873Z,40.50
2018-09-27T23:19:48.693Z,40.00
2018-09-27T23:21:52.470Z,40.70
2018-09-27T23:23:56.269Z,40.60
2018-09-27T23:26:00.258Z,39.60
2018-09-27T23:28:04.114Z,40.70
2018-09-27T23:30:07.781Z,40.60
2018-09-27T23:32:11.465Z,42.00
2018-09-27T23:34:15.173Z,42.40
2018-09-27T23:36:19.006Z,42.30
2018-09-27T23:38:22.961Z,42.30
2018-09-27T23:40:26.658Z,42.90
2018-09-27T23:42:30.408Z,42.90
2018-09-27T23:44:34.193Z,42.50
2018-09-27T23:46:37.997Z,42.70
2018-09-27T23:48:41.626Z,42.90
2018-09-27T23:50:45.456Z,43.80
2018-09-27T23:52:49.119Z,44.00
2018-09-27T23:54:52.964Z,44.30
2018-09-27T23:56:56.751Z,43.60
2018-09-27T23:59:00.586Z,43.50
